Time;durP1;ratioP1;P1;durP2;ratioP2;P2;SDS_P1;SDS_P2;PMS_P1;PMS_P2;Temp;Humidity;BMP_temperature;BMP_pressure;BME280_temperature;BME280_humidity;BME280_pressure;Samples;Min_cycle;Max_cycle;Signal;HPM_P1;HPM_P2
2021/05/08 00:00:18;;;;;;;6.77;6.07;;;6.90;97.90;;;;;;4916957;29;20459;-89
2021/05/08 00:02:46;;;;;;;6.30;5.30;;;6.90;97.70;;;;;;4908393;29;20533;-90
2021/05/08 00:05:14;;;;;;;7.27;6.23;;;6.80;97.70;;;;;;4932011;29;20461;-90
2021/05/08 00:07:41;;;;;;;5.60;5.07;;;6.80;97.70;;;;;;4916162;29;20956;-90
2021/05/08 00:10:11;;;;;;;7.10;6.00;;;6.70;97.70;;;;;;4920362;29;20470;-90
2021/05/08 00:12:38;;;;;;;7.70;6.10;;;6.70;97.80;;;;;;4921545;29;20455;-90
2021/05/08 00:15:08;;;;;;;6.20;5.60;;;6.70;97.80;;;;;;4916944;29;20818;-90
2021/05/08 00:17:36;;;;;;;5.23;4.83;;;6.60;97.90;;;;;;4917229;29;20458;-90
2021/05/08 00:20:06;;;;;;;5.93;5.30;;;6.60;97.90;;;;;;4916547;29;20462;-90
2021/05/08 00:22:33;;;;;;;7.27;5.27;;;6.60;98.00;;;;;;4920238;29;20470;-90
2021/05/08 00:25:01;;;;;;;6.10;5.23;;;6.50;97.90;;;;;;4920293;29;20486;-89
2021/05/08 00:27:28;;;;;;;9.90;6.43;;;6.50;98.00;;;;;;4920407;29;20562;-90
2021/05/08 00:29:55;;;;;;;5.60;5.07;;;6.40;98.00;;;;;;4919976;29;20458;-90
2021/05/08 00:32:22;;;;;;;9.30;5.40;;;6.40;98.00;;;;;;4920143;29;20457;-89
2021/05/08 00:34:51;;;;;;;7.40;4.90;;;6.40;98.00;;;;;;4919851;29;20506;-89
2021/05/08 00:37:19;;;;;;;6.57;5.00;;;6.40;98.00;;;;;;4919901;29;20459;-90
2021/05/08 00:39:46;;;;;;;8.37;5.80;;;6.40;98.10;;;;;;4919705;29;20486;-90
2021/05/08 00:42:14;;;;;;;7.10;6.40;;;6.30;98.10;;;;;;4919575;29;20992;-90
2021/05/08 00:44:41;;;;;;;8.03;6.37;;;6.30;98.10;;;;;;4919394;29;20473;-90
2021/05/08 00:47:11;;;;;;;8.40;6.43;;;6.30;98.20;;;;;;4919368;29;20464;-90
2021/05/08 00:49:38;;;;;;;8.17;6.53;;;6.20;98.20;;;;;;4919555;29;20457;-90
2021/05/08 00:52:07;;;;;;;12.33;7.00;;;6.20;98.20;;;;;;4933944;29;20519;-90
2021/05/08 00:54:36;;;;;;;6.07;5.37;;;6.20;98.30;;;;;;4938374;29;20576;-90
2021/05/08 00:57:04;;;;;;;7.53;5.67;;;6.10;98.30;;;;;;4938340;29;20970;-90
2021/05/08 00:59:31;;;;;;;9.17;6.97;;;6.10;98.30;;;;;;4938751;29;20536;-90
2021/05/08 01:01:59;;;;;;;8.87;5.87;;;6.00;98.50;;;;;;4934569;29;20542;-90
2021/05/08 01:04:30;;;;;;;6.70;6.00;;;6.00;98.30;;;;;;4931454;29;20669;-90
2021/05/08 01:06:59;;;;;;;7.70;6.17;;;5.90;98.30;;;;;;4925308;29;20466;-89
2021/05/08 01:09:27;;;;;;;9.17;6.30;;;6.00;98.40;;;;;;4919046;29;20458;-90
2021/05/08 01:11:58;;;;;;;7.97;6.27;;;5.90;98.40;;;;;;4919251;29;20568;-90
2021/05/08 01:14:26;;;;;;;7.07;6.37;;;5.90;98.40;;;;;;4934679;29;20494;-90
2021/05/08 01:16:54;;;;;;;7.97;6.37;;;5.80;98.40;;;;;;4938071;29;20487;-90
2021/05/08 01:19:26;;;;;;;7.90;6.57;;;5.80;98.40;;;;;;4938276;29;20460;-90
2021/05/08 01:21:56;;;;;;;7.40;6.72;;;5.80;98.40;;;;;;4938094;29;20456;-90
2021/05/08 01:24:24;;;;;;;10.47;6.27;;;5.80;98.90;;;;;;4937818;29;20217;-89
2021/05/08 01:26:52;;;;;;;7.40;6.00;;;5.80;98.80;;;;;;4937838;29;20465;-89
2021/05/08 01:29:20;;;;;;;8.03;7.20;;;5.80;98.70;;;;;;4937740;29;20556;-89
2021/05/08 01:31:47;;;;;;;8.40;7.50;;;5.70;98.70;;;;;;4936013;29;20468;-89
2021/05/08 01:34:16;;;;;;;9.20;7.57;;;5.80;99.20;;;;;;4937516;29;20474;-90
2021/05/08 01:36:44;;;;;;;8.90;8.10;;;5.70;99.00;;;;;;4921574;29;20489;-90
2021/05/08 01:39:13;;;;;;;10.60;8.47;;;5.70;99.00;;;;;;4923124;29;21030;-90
2021/05/08 01:41:45;;;;;;;8.90;7.70;;;5.60;99.00;;;;;;4937905;29;20472;-89
2021/05/08 01:44:12;;;;;;;8.47;7.20;;;5.60;99.00;;;;;;4937412;29;20535;-90
2021/05/08 01:46:40;;;;;;;8.23;7.50;;;5.50;99.10;;;;;;4921651;29;20445;-90
2021/05/08 01:49:08;;;;;;;8.77;7.87;;;5.50;99.10;;;;;;4918569;29;20469;-91
2021/05/08 01:51:36;;;;;;;8.07;7.37;;;5.40;99.10;;;;;;4918493;29;20539;-90
2021/05/08 01:54:04;;;;;;;8.90;8.10;;;5.40;99.10;;;;;;4918151;29;20517;-91
2021/05/08 01:56:33;;;;;;;8.20;7.40;;;5.40;99.10;;;;;;4918386;29;20529;-90
2021/05/08 01:59:06;;;;;;;7.60;6.90;;;5.30;99.10;;;;;;4918440;29;20461;-90
2021/05/08 02:01:34;;;;;;;8.43;7.53;;;5.30;99.10;;;;;;4918734;29;20481;-90
2021/05/08 02:04:02;;;;;;;7.77;7.07;;;5.20;99.10;;;;;;4919546;29;20585;-91
2021/05/08 02:06:30;;;;;;;8.50;7.13;;;5.20;99.10;;;;;;4930622;29;20458;-91
2021/05/08 02:09:20;;;;;;;7.60;6.90;;;5.20;99.10;;;;;;4919377;29;20876;-90
2021/05/08 02:11:54;;;;;;;9.23;7.60;;;5.20;99.10;;;;;;4935044;29;20447;-90
2021/05/08 02:14:21;;;;;;;9.10;7.30;;;5.10;99.00;;;;;;4918651;29;20471;-90
2021/05/08 02:16:50;;;;;;;9.30;6.90;;;5.10;99.10;;;;;;4918930;29;20457;-91
2021/05/08 02:19:19;;;;;;;8.57;6.47;;;5.10;99.10;;;;;;4929929;29;20461;-90
2021/05/08 02:21:47;;;;;;;7.40;6.63;;;5.10;99.10;;;;;;4937094;29;20471;-90
2021/05/08 02:24:14;;;;;;;7.40;6.50;;;5.10;99.10;;;;;;4937784;29;20526;-89
2021/05/08 02:26:42;;;;;;;7.50;6.33;;;5.00;99.10;;;;;;4927662;29;20477;-89
2021/05/08 02:29:11;;;;;;;7.07;6.43;;;5.00;99.10;;;;;;4923754;29;20476;-89
2021/05/08 02:31:39;;;;;;;9.40;6.90;;;4.90;99.10;;;;;;4924322;29;20553;-90
2021/05/08 02:34:07;;;;;;;7.00;6.30;;;4.90;99.10;;;;;;4925788;29;20478;-89
2021/05/08 02:36:35;;;;;;;6.70;6.10;;;4.90;99.10;;;;;;4925155;29;20457;-89
2021/05/08 02:39:04;;;;;;;8.17;6.40;;;4.80;99.10;;;;;;4925757;29;20494;-91
2021/05/08 02:41:35;;;;;;;10.20;7.00;;;4.80;99.10;;;;;;4944178;29;20459;-89
2021/05/08 02:44:03;;;;;;;6.90;6.00;;;4.70;99.10;;;;;;4940164;29;20494;-89
2021/05/08 02:46:32;;;;;;;6.70;5.77;;;4.70;99.10;;;;;;4941200;29;20523;-89
2021/05/08 02:49:00;;;;;;;7.00;6.30;;;4.70;99.10;;;;;;4930762;29;20480;-89
2021/05/08 02:51:27;;;;;;;7.17;6.57;;;4.70;99.10;;;;;;4921350;29;20487;-89
2021/05/08 02:53:54;;;;;;;8.40;6.33;;;4.60;99.10;;;;;;4939304;29;20476;-90
2021/05/08 02:56:22;;;;;;;9.83;6.20;;;4.60;99.10;;;;;;4937409;29;20796;-90
2021/05/08 02:58:50;;;;;;;7.30;6.60;;;4.60;99.10;;;;;;4937658;29;20466;-90
2021/05/08 03:01:17;;;;;;;7.27;6.57;;;4.60;99.10;;;;;;4937167;29;20528;-90
2021/05/08 03:03:45;;;;;;;7.30;6.53;;;4.50;99.10;;;;;;4931030;29;21064;-90
2021/05/08 03:06:12;;;;;;;10.23;7.33;;;4.50;99.10;;;;;;4938178;29;20524;-90
2021/05/08 03:08:44;;;;;;;8.03;7.20;;;4.50;99.20;;;;;;4936000;29;20547;-90
2021/05/08 03:11:14;;;;;;;10.60;6.67;;;4.40;99.10;;;;;;4920610;29;20438;-90
2021/05/08 03:13:44;;;;;;;8.60;6.20;;;4.50;99.20;;;;;;4928364;29;20494;-90
2021/05/08 03:16:12;;;;;;;7.00;6.50;;;4.50;99.20;;;;;;4918685;29;20456;-90
2021/05/08 03:18:41;;;;;;;7.93;7.20;;;4.40;99.20;;;;;;4918665;29;20457;-90
2021/05/08 03:21:10;;;;;;;6.73;6.23;;;4.30;99.20;;;;;;4927785;29;20456;-90
2021/05/08 03:23:39;;;;;;;7.20;6.50;;;4.40;99.30;;;;;;4917920;29;20541;-90
2021/05/08 03:26:06;;;;;;;7.83;7.13;;;4.30;99.30;;;;;;4917775;29;20540;-90
2021/05/08 03:28:34;;;;;;;8.47;6.60;;;4.30;99.30;;;;;;4917441;29;20473;-91
2021/05/08 03:31:02;;;;;;;8.00;7.20;;;4.30;99.30;;;;;;4917558;29;20457;-90
2021/05/08 03:33:30;;;;;;;7.10;6.43;;;4.30;99.40;;;;;;4931769;29;20513;-90
2021/05/08 03:35:58;;;;;;;9.17;7.83;;;4.20;99.30;;;;;;4934214;29;20456;-91
2021/05/08 03:38:28;;;;;;;7.88;7.18;;;4.20;99.40;;;;;;4916582;29;20518;-90
2021/05/08 03:40:55;;;;;;;8.33;7.60;;;4.30;99.90;;;;;;4918644;29;20631;-90
2021/05/08 03:43:23;;;;;;;8.00;7.30;;;4.20;99.70;;;;;;4918481;29;20492;-90
2021/05/08 03:45:50;;;;;;;8.37;7.47;;;4.20;99.70;;;;;;4920330;29;20470;-90
2021/05/08 03:48:18;;;;;;;7.63;6.87;;;4.20;99.60;;;;;;4936704;29;20480;-90
2021/05/08 03:50:49;;;;;;;7.87;7.07;;;4.20;99.70;;;;;;4924417;29;20457;-90
2021/05/08 03:53:16;;;;;;;8.33;7.30;;;4.10;99.60;;;;;;4928852;29;20874;-90
2021/05/08 03:55:45;;;;;;;8.90;7.57;;;4.10;99.60;;;;;;4935672;29;20452;-90
2021/05/08 03:58:12;;;;;;;8.43;7.60;;;4.10;99.70;;;;;;4923169;29;20461;-90
2021/05/08 04:00:40;;;;;;;10.50;8.30;;;4.00;99.70;;;;;;4923744;29;20455;-89
2021/05/08 04:03:07;;;;;;;8.73;7.93;;;4.00;99.70;;;;;;4923558;29;20508;-90
2021/05/08 04:05:35;;;;;;;8.67;7.87;;;4.00;99.90;;;;;;4926181;29;20490;-90
2021/05/08 04:08:02;;;;;;;7.80;7.00;;;4.00;99.80;;;;;;4935451;29;20465;-89
2021/05/08 04:10:30;;;;;;;8.90;8.00;;;4.00;99.80;;;;;;4942338;29;20456;-90
2021/05/08 04:13:00;;;;;;;10.63;9.63;;;4.00;99.80;;;;;;4931347;29;20450;-90
2021/05/08 04:15:30;;;;;;;14.87;13.07;;;4.00;99.90;;;;;;4923445;29;20456;-90
2021/05/08 04:17:59;;;;;;;12.70;11.37;;;4.00;99.90;;;;;;4921922;29;20461;-90
2021/05/08 04:20:27;;;;;;;10.40;9.40;;;4.00;99.90;;;;;;4922185;29;20445;-90
2021/05/08 04:22:55;;;;;;;10.23;8.90;;;4.00;99.90;;;;;;4919562;29;20503;-90
2021/05/08 04:25:22;;;;;;;10.03;9.03;;;4.00;99.90;;;;;;4903944;29;20457;-90
2021/05/08 04:27:50;;;;;;;11.93;10.70;;;4.00;99.90;;;;;;4903964;29;20458;-90
2021/05/08 04:30:20;;;;;;;13.40;10.07;;;3.90;99.90;;;;;;4904419;29;20464;-90
2021/05/08 04:32:47;;;;;;;11.83;9.10;;;4.00;99.90;;;;;;4903901;29;20522;-90
2021/05/08 04:35:16;;;;;;;12.43;9.40;;;4.00;99.90;;;;;;4903839;29;20456;-89
2021/05/08 04:37:44;;;;;;;9.53;8.70;;;4.00;99.90;;;;;;4904040;29;20457;-89
2021/05/08 04:40:12;;;;;;;10.33;9.43;;;4.00;99.90;;;;;;4904301;29;20505;-89
2021/05/08 04:42:43;;;;;;;10.17;8.77;;;4.00;99.90;;;;;;4903903;29;20461;-89
2021/05/08 04:45:11;;;;;;;13.00;11.50;;;4.00;99.90;;;;;;4904262;29;20476;-90
2021/05/08 04:47:39;;;;;;;11.80;10.80;;;4.00;99.90;;;;;;4904683;29;20520;-90
2021/05/08 04:50:10;;;;;;;12.90;11.50;;;4.00;99.90;;;;;;4903944;29;20867;-90
2021/05/08 04:52:39;;;;;;;13.20;10.93;;;4.00;99.90;;;;;;4906924;29;20462;-90
2021/05/08 04:55:07;;;;;;;12.67;11.40;;;4.00;99.90;;;;;;4922736;29;20479;-89
2021/05/08 04:57:41;;;;;;;12.57;11.47;;;4.10;99.90;;;;;;4923792;29;20453;-90
2021/05/08 05:00:14;;;;;;;12.60;11.50;;;4.10;99.90;;;;;;4922951;29;20505;-90
2021/05/08 05:02:46;;;;;;;14.17;12.70;;;4.10;99.90;;;;;;4922434;29;20540;-90
2021/05/08 05:05:19;;;;;;;14.23;12.93;;;4.10;99.90;;;;;;4922199;29;20460;-90
2021/05/08 05:07:49;;;;;;;15.47;13.20;;;4.10;99.90;;;;;;4917614;29;20488;-90
2021/05/08 05:10:25;;;;;;;14.37;12.97;;;4.10;99.90;;;;;;4900468;29;20488;-90
2021/05/08 05:12:55;;;;;;;13.83;12.50;;;4.20;99.90;;;;;;4908227;29;20453;-89
2021/05/08 05:15:23;;;;;;;14.03;12.63;;;4.20;99.90;;;;;;4938417;29;20451;-89
2021/05/08 05:18:02;;;;;;;13.27;12.00;;;4.20;99.90;;;;;;4938864;29;20452;-89
2021/05/08 05:20:32;;;;;;;15.00;13.37;;;4.20;99.90;;;;;;4938712;29;20957;-90
2021/05/08 05:22:59;;;;;;;14.00;12.50;;;4.30;99.90;;;;;;4935226;29;20483;-90
2021/05/08 05:25:29;;;;;;;14.90;13.43;;;4.30;99.90;;;;;;4930889;29;20469;-90
2021/05/08 05:27:59;;;;;;;12.97;11.63;;;4.30;99.90;;;;;;4939691;29;20521;-90
2021/05/08 05:30:28;;;;;;;14.20;12.80;;;4.40;99.90;;;;;;4939769;29;20511;-90
2021/05/08 05:33:07;;;;;;;14.50;13.20;;;4.40;99.90;;;;;;4939443;29;20449;-91
2021/05/08 05:35:38;;;;;;;12.70;11.50;;;4.50;99.90;;;;;;4938936;29;20449;-90
2021/05/08 05:38:13;;;;;;;14.87;13.37;;;4.50;99.90;;;;;;4939014;29;20457;-90
2021/05/08 05:40:46;;;;;;;16.00;14.40;;;4.60;99.90;;;;;;4939381;29;20441;-90
2021/05/08 05:43:14;;;;;;;12.93;11.63;;;4.70;99.90;;;;;;4938896;29;20527;-90
2021/05/08 05:45:49;;;;;;;15.07;13.53;;;4.80;99.90;;;;;;4939163;29;20474;-90
2021/05/08 05:48:22;;;;;;;16.23;14.17;;;5.00;99.90;;;;;;4940430;29;20488;-90
2021/05/08 05:50:54;;;;;;;14.23;13.03;;;5.20;99.90;;;;;;4939235;29;20443;-90
2021/05/08 05:53:23;;;;;;;14.80;13.30;;;5.40;99.90;;;;;;4938632;29;20476;-90
2021/05/08 05:55:53;;;;;;;13.20;12.00;;;5.70;99.90;;;;;;4936136;29;20993;-90
2021/05/08 05:58:24;;;;;;;14.90;13.40;;;5.90;99.90;;;;;;4927111;29;20490;-90
2021/05/08 06:00:54;;;;;;;19.90;17.47;;;6.30;99.90;;;;;;4926416;29;20963;-91
2021/05/08 06:03:29;;;;;;;13.33;12.03;;;6.60;99.90;;;;;;4938133;29;20496;-90
2021/05/08 06:06:20;;;;;;;13.10;11.90;;;6.90;99.90;;;;;;4931388;29;20542;-89
2021/05/08 06:08:55;;;;;;;11.57;10.38;;;7.30;99.90;;;;;;4900611;29;20497;-90
2021/05/08 06:11:27;;;;;;;10.70;9.57;;;7.60;99.90;;;;;;4903568;29;20192;-90
2021/05/08 06:13:56;;;;;;;10.10;9.00;;;7.90;99.90;;;;;;4938851;29;21003;-90
2021/05/08 06:16:38;;;;;;;10.03;8.93;;;8.20;99.90;;;;;;4938271;29;21017;-91
2021/05/08 06:19:07;;;;;;;9.30;8.43;;;8.50;99.90;;;;;;4939191;29;20458;-91
2021/05/08 06:21:38;;;;;;;11.20;9.37;;;8.80;99.90;;;;;;4939529;29;20443;-91
2021/05/08 06:24:07;;;;;;;9.40;8.50;;;9.10;99.90;;;;;;4938858;29;20582;-91
2021/05/08 06:26:36;;;;;;;10.07;8.50;;;9.30;99.90;;;;;;4940957;29;20455;-91
2021/05/08 06:29:08;;;;;;;9.63;8.63;;;9.50;99.90;;;;;;4927040;29;20869;-89
2021/05/08 06:31:37;;;;;;;7.90;7.20;;;9.80;99.90;;;;;;4937183;29;20447;-89
2021/05/08 06:34:16;;;;;;;7.73;7.03;;;10.00;99.90;;;;;;4937375;29;21020;-89
2021/05/08 06:36:46;;;;;;;8.27;7.47;;;10.20;99.90;;;;;;4936995;29;20543;-90
2021/05/08 06:39:14;;;;;;;9.17;7.80;;;10.50;99.90;;;;;;4903188;29;20978;-90
2021/05/08 06:41:54;;;;;;;;;;;;;;;;;;;;;
2021/05/08 06:44:25;;;;;;;6.10;5.60;;;10.90;99.90;;;;;;4902815;29;20493;-89
2021/05/08 06:46:58;;;;;;;6.43;5.93;;;11.10;99.90;;;;;;4938352;29;20458;-90
2021/05/08 06:49:26;;;;;;;7.37;6.77;;;11.40;99.90;;;;;;4937739;29;20843;-90
2021/05/08 06:51:59;;;;;;;7.20;5.70;;;11.50;99.90;;;;;;4929097;29;20465;-90
2021/05/08 06:54:55;;;;;;;6.70;5.93;;;11.80;99.90;;;;;;4918393;29;20886;-90
2021/05/08 06:57:26;;;;;;;6.10;5.60;;;12.00;99.90;;;;;;4919896;29;20461;-88
2021/05/08 07:00:01;;;;;;;5.90;5.40;;;12.10;99.90;;;;;;4922642;29;20491;-87
2021/05/08 07:02:36;;;;;;;7.50;5.67;;;12.20;99.90;;;;;;4912862;29;20807;-88
2021/05/08 07:05:08;;;;;;;7.03;5.20;;;12.40;99.90;;;;;;4948341;29;20518;-89
2021/05/08 07:07:38;;;;;;;16.20;10.37;;;12.50;99.90;;;;;;4936134;29;20452;-89
2021/05/08 07:10:09;;;;;;;5.00;4.50;;;12.60;99.90;;;;;;4899975;29;20450;-89
2021/05/08 07:12:38;;;;;;;5.47;4.97;;;12.80;99.90;;;;;;4901637;29;20952;-89
2021/05/08 07:15:07;;;;;;;5.90;5.40;;;12.90;99.90;;;;;;4935619;29;20480;-89
2021/05/08 07:17:40;;;;;;;5.67;5.00;;;13.00;99.90;;;;;;4936910;29;20499;-88
2021/05/08 07:20:13;;;;;;;6.87;6.10;;;13.10;99.90;;;;;;4936482;29;20487;-88
2021/05/08 07:22:43;;;;;;;6.07;5.57;;;13.30;99.90;;;;;;4918863;29;20452;-89
2021/05/08 07:25:13;;;;;;;6.30;5.23;;;13.40;99.90;;;;;;4917606;29;20486;-89
2021/05/08 07:27:45;;;;;;;5.83;5.23;;;13.50;99.90;;;;;;4919509;29;20519;-88
2021/05/08 07:30:18;;;;;;;5.57;5.07;;;13.70;99.90;;;;;;4923437;29;20540;-89
2021/05/08 07:32:45;;;;;;;7.60;5.23;;;13.80;99.70;;;;;;4939996;29;20452;-89
2021/05/08 07:35:14;;;;;;;4.97;4.57;;;14.00;99.50;;;;;;4944603;29;20475;-89
2021/05/08 07:37:49;;;;;;;5.70;4.60;;;14.10;99.40;;;;;;4942658;29;20452;-89
2021/05/08 07:40:23;;;;;;;6.23;4.30;;;14.30;99.20;;;;;;4926740;29;20450;-89
2021/05/08 07:42:50;;;;;;;5.23;4.07;;;14.40;98.90;;;;;;4920849;29;20434;-89
2021/05/08 07:45:23;;;;;;;4.47;3.87;;;14.50;98.70;;;;;;4940247;29;20478;-89
2021/05/08 07:47:52;;;;;;;5.27;4.77;;;14.60;98.60;;;;;;4938666;29;20604;-89
2021/05/08 07:50:25;;;;;;;4.83;4.20;;;14.70;98.50;;;;;;4945711;29;20483;-88
2021/05/08 07:52:52;;;;;;;5.23;3.73;;;14.80;96.90;;;;;;4940921;29;20444;-89
2021/05/08 07:55:19;;;;;;;4.70;3.80;;;14.80;96.90;;;;;;4936669;29;20458;-88
2021/05/08 07:57:47;;;;;;;4.33;3.93;;;14.80;96.90;;;;;;4937644;29;20444;-90
2021/05/08 08:00:16;;;;;;;4.47;4.00;;;14.90;96.80;;;;;;4936297;29;20519;-91
2021/05/08 08:02:49;;;;;;;6.87;4.40;;;14.90;95.40;;;;;;4931110;29;20471;-90
2021/05/08 08:05:23;;;;;;;5.10;3.90;;;15.10;95.60;;;;;;4939343;29;20447;-90
2021/05/08 08:07:55;;;;;;;5.23;4.20;;;15.20;95.70;;;;;;4928564;29;20457;-90
2021/05/08 08:10:25;;;;;;;7.00;3.93;;;15.30;95.80;;;;;;4918366;29;20480;-91
2021/05/08 08:12:53;;;;;;;5.70;3.87;;;15.40;95.90;;;;;;4910591;29;20971;-90
2021/05/08 08:15:26;;;;;;;5.20;3.77;;;15.60;96.00;;;;;;4900003;29;20465;-90
2021/05/08 08:17:55;;;;;;;4.50;4.10;;;15.90;96.00;;;;;;4898495;29;20449;-89
2021/05/08 08:20:29;;;;;;;7.30;5.23;;;16.00;95.70;;;;;;4899120;29;20943;-90
2021/05/08 08:23:02;;;;;;;4.90;4.50;;;16.20;95.50;;;;;;4936015;29;20448;-91
2021/05/08 08:25:31;;;;;;;5.27;3.80;;;16.30;95.30;;;;;;4938770;29;20446;-90
2021/05/08 08:27:58;;;;;;;7.17;4.70;;;16.40;95.20;;;;;;4930740;29;20483;-91
2021/05/08 08:30:29;;;;;;;4.43;4.03;;;16.40;94.90;;;;;;4917713;29;20980;-91
2021/05/08 08:32:59;;;;;;;4.60;4.13;;;16.40;94.80;;;;;;4916536;29;20445;-91
2021/05/08 08:35:26;;;;;;;6.13;4.53;;;16.50;94.90;;;;;;4935788;29;20959;-92
2021/05/08 08:38:06;;;;;;;6.50;4.40;;;16.60;94.80;;;;;;4918594;29;20455;-92
2021/05/08 08:40:39;;;;;;;5.13;4.60;;;16.60;94.60;;;;;;4933387;29;20460;-90
2021/05/08 08:43:12;;;;;;;4.53;4.13;;;16.60;94.50;;;;;;4922599;29;20456;-90
2021/05/08 08:45:43;;;;;;;5.73;5.13;;;16.60;94.40;;;;;;4939841;29;20436;-90
2021/05/08 08:48:11;;;;;;;4.63;3.80;;;16.70;94.30;;;;;;4940067;29;20506;-90
2021/05/08 08:50:39;;;;;;;4.67;4.27;;;16.70;94.10;;;;;;4936789;29;20543;-89
2021/05/08 08:53:09;;;;;;;5.73;4.43;;;16.80;94.00;;;;;;4920656;29;20547;-90
2021/05/08 08:55:44;;;;;;;4.80;4.40;;;16.80;93.80;;;;;;4919838;29;20448;-89
2021/05/08 08:58:12;;;;;;;5.57;4.30;;;16.90;93.80;;;;;;4917025;29;20504;-90
2021/05/08 09:00:41;;;;;;;4.63;4.23;;;17.00;93.80;;;;;;4917397;29;20894;-89
2021/05/08 09:03:08;;;;;;;6.93;5.13;;;17.00;93.40;;;;;;4939518;29;20459;-89
2021/05/08 09:05:35;;;;;;;4.50;3.63;;;17.00;93.30;;;;;;4937140;29;20498;-90
2021/05/08 09:08:08;;;;;;;6.00;4.93;;;17.10;93.20;;;;;;4926317;29;20456;-89
2021/05/08 09:10:41;;;;;;;6.30;5.17;;;17.20;93.10;;;;;;4930355;29;20456;-89
2021/05/08 09:13:16;;;;;;;4.77;4.33;;;17.30;93.00;;;;;;4939349;29;20449;-89
2021/05/08 09:16:08;;;;;;;4.83;4.43;;;17.30;92.70;;;;;;4927431;29;20575;-89
2021/05/08 09:18:37;;;;;;;5.63;5.13;;;17.40;92.90;;;;;;4934818;29;21010;-89
2021/05/08 09:21:13;;;;;;;5.60;4.50;;;17.50;90.90;;;;;;4932199;29;20209;-89
2021/05/08 09:23:47;;;;;;;6.70;4.90;;;17.60;91.00;;;;;;4919827;29;20473;-89
2021/05/08 09:26:15;;;;;;;10.43;5.67;;;17.70;91.10;;;;;;4919455;29;20492;-89
2021/05/08 09:28:53;;;;;;;6.00;5.40;;;17.80;91.20;;;;;;4919197;29;20790;-89
2021/05/08 09:31:25;;;;;;;6.63;5.50;;;17.90;89.00;;;;;;4919478;29;20299;-89
2021/05/08 09:34:18;;;;;;;5.67;5.17;;;18.00;89.50;;;;;;4918488;29;20480;-90
2021/05/08 09:36:50;;;;;;;7.37;5.10;;;17.90;89.70;;;;;;4919700;29;20467;-88
2021/05/08 09:39:28;;;;;;;6.70;6.00;;;17.80;89.60;;;;;;4920011;29;20484;-88
2021/05/08 09:41:57;;;;;;;6.77;5.57;;;17.70;89.20;;;;;;4940623;29;20456;-88
2021/05/08 09:44:25;;;;;;;5.40;5.00;;;17.60;89.00;;;;;;4918448;29;20540;-88
2021/05/08 09:46:55;;;;;;;5.70;5.20;;;17.70;88.80;;;;;;4918281;29;20516;-88
2021/05/08 09:49:30;;;;;;;7.17;5.67;;;17.70;88.20;;;;;;4920570;29;20456;-88
2021/05/08 09:51:58;;;;;;;5.30;4.90;;;17.80;88.10;;;;;;4929422;29;20874;-88
2021/05/08 09:54:27;;;;;;;5.80;5.30;;;17.80;87.90;;;;;;4918512;29;20473;-88
2021/05/08 09:56:57;;;;;;;6.17;5.57;;;17.90;87.50;;;;;;4935112;29;20924;-88
2021/05/08 09:59:33;;;;;;;6.23;5.63;;;17.90;87.10;;;;;;4918873;29;20484;-88
2021/05/08 10:02:16;;;;;;;5.80;5.23;;;17.90;86.80;;;;;;4918981;29;20491;-89
2021/05/08 10:05:11;;;;;;;5.50;5.00;;;18.00;86.40;;;;;;4918282;29;20567;-89
2021/05/08 10:07:42;;;;;;;5.87;4.90;;;18.00;85.70;;;;;;4918869;29;20455;-89
2021/05/08 10:10:10;;;;;;;5.07;4.60;;;18.00;85.20;;;;;;4918772;29;20492;-89
2021/05/08 10:12:37;;;;;;;6.63;5.90;;;18.00;84.60;;;;;;4922111;29;20961;-89
2021/05/08 10:15:10;;;;;;;5.47;4.93;;;18.00;84.40;;;;;;4937507;29;20476;-89
2021/05/08 10:17:38;;;;;;;6.73;5.33;;;18.00;84.10;;;;;;4937127;29;20451;-89
2021/05/08 10:20:09;;;;;;;6.67;5.60;;;18.00;83.90;;;;;;4937569;29;20463;-89
2021/05/08 10:22:43;;;;;;;5.57;5.07;;;18.10;83.50;;;;;;4929337;29;20449;-88
2021/05/08 10:25:11;;;;;;;6.40;5.50;;;18.10;83.20;;;;;;4919547;29;20500;-89
2021/05/08 10:27:42;;;;;;;6.00;5.40;;;18.10;82.60;;;;;;4918389;29;20457;-89
2021/05/08 10:30:15;;;;;;;5.47;4.80;;;18.20;82.10;;;;;;4937451;29;20837;-89
2021/05/08 10:32:48;;;;;;;6.90;5.20;;;18.20;81.30;;;;;;4927615;29;20455;-89
2021/05/08 10:35:24;;;;;;;5.67;5.07;;;18.40;75.00;;;;;;4917846;29;20221;-89
2021/05/08 10:38:27;;;;;;;6.93;5.27;;;18.50;75.70;;;;;;4917648;29;20453;-88
2021/05/08 10:41:05;;;;;;;6.93;6.00;;;18.50;75.80;;;;;;4919598;29;20500;-88
2021/05/08 10:43:48;;;;;;;6.97;5.40;;;18.50;76.70;;;;;;4920533;29;20451;-87
2021/05/08 10:46:20;;;;;;;6.70;5.77;;;18.70;74.30;;;;;;4918258;29;20193;-88
2021/05/08 10:49:19;;;;;;;5.57;5.07;;;18.70;74.90;;;;;;4918203;29;20480;-88
2021/05/08 10:51:57;;;;;;;6.57;5.70;;;18.70;75.10;;;;;;4922523;29;20464;-89
2021/05/08 10:54:55;;;;;;;6.20;5.70;;;18.70;75.80;;;;;;4900473;29;20466;-88
2021/05/08 10:57:26;;;;;;;6.43;5.93;;;18.80;76.00;;;;;;4917242;29;20516;-88
2021/05/08 11:00:34;;;;;;;6.63;5.77;;;18.90;76.20;;;;;;4936900;29;20492;-88
2021/05/08 11:03:03;;;;;;;8.23;6.10;;;18.90;76.10;;;;;;4937357;29;20460;-88
2021/05/08 11:05:51;;;;;;;6.73;6.13;;;19.00;76.50;;;;;;4936485;29;21040;-88
2021/05/08 11:08:43;;;;;;;7.10;6.43;;;19.00;76.40;;;;;;4937937;29;20814;-88
2021/05/08 11:11:12;;;;;;;8.07;7.37;;;19.00;75.90;;;;;;4937406;29;20504;-88
2021/05/08 11:13:53;;;;;;;9.63;8.63;;;19.10;76.20;;;;;;4926698;29;20488;-88
2021/05/08 11:16:21;;;;;;;6.93;6.00;;;19.20;76.50;;;;;;4917448;29;20504;-88
2021/05/08 11:18:50;;;;;;;6.97;6.37;;;19.20;76.40;;;;;;4921578;29;20453;-88
2021/05/08 11:22:10;;;;;;;11.50;9.87;;;19.30;76.20;;;;;;4910604;29;20880;-88
2021/05/08 11:24:39;;;;;;;10.33;7.00;;;19.30;74.80;;;;;;4902137;29;20482;-88
2021/05/08 11:27:28;;;;;;;7.17;6.47;;;19.30;75.30;;;;;;4897942;29;20454;-88
2021/05/08 11:30:07;;;;;;;9.40;6.43;;;19.40;75.20;;;;;;4899414;29;20825;-88
2021/05/08 11:32:48;;;;;;;7.80;6.57;;;19.40;74.90;;;;;;4928821;29;20467;-88
2021/05/08 11:35:28;;;;;;;7.00;6.40;;;19.30;74.80;;;;;;4936580;29;20532;-88
2021/05/08 11:38:20;;;;;;;6.23;5.63;;;19.30;74.50;;;;;;4924444;29;20464;-88
2021/05/08 11:40:47;;;;;;;6.73;6.10;;;19.20;73.90;;;;;;4932333;29;20460;-88
2021/05/08 11:43:24;;;;;;;6.97;6.30;;;19.20;74.00;;;;;;4935999;29;20507;-88
2021/05/08 11:45:59;;;;;;;6.90;6.30;;;19.20;73.30;;;;;;4935896;29;20530;-88
2021/05/08 11:48:26;;;;;;;5.80;5.10;;;19.10;72.90;;;;;;4935669;29;20452;-88
2021/05/08 11:51:01;;;;;;;6.23;5.63;;;19.10;72.70;;;;;;4935589;29;20472;-88
2021/05/08 11:53:28;;;;;;;6.35;5.70;;;19.10;72.10;;;;;;4934505;29;20468;-88
2021/05/08 11:56:30;;;;;;;5.97;5.37;;;19.10;68.00;;;;;;4936091;29;20283;-88
2021/05/08 11:59:10;;;;;;;6.83;5.63;;;19.10;68.60;;;;;;4935439;29;20448;-88
2021/05/08 12:01:43;;;;;;;5.40;4.90;;;19.20;69.40;;;;;;4932662;29;20516;-88
2021/05/08 12:04:13;;;;;;;6.60;5.90;;;19.20;69.80;;;;;;4913798;29;20488;-88
2021/05/08 12:06:46;;;;;;;6.10;5.50;;;19.20;69.60;;;;;;4943881;29;20942;-88
2021/05/08 12:09:14;;;;;;;5.73;5.23;;;19.30;69.50;;;;;;4919730;29;20464;-88
2021/05/08 12:11:43;;;;;;;5.67;5.17;;;19.30;69.50;;;;;;4917916;29;20462;-88
2021/05/08 12:14:15;;;;;;;6.87;6.27;;;19.30;69.30;;;;;;4923850;29;20488;-88
2021/05/08 12:16:43;;;;;;;5.77;5.17;;;19.30;68.80;;;;;;4917635;29;20900;-89
2021/05/08 12:19:10;;;;;;;5.10;4.60;;;19.30;68.90;;;;;;4920112;29;20488;-88
2021/05/08 12:21:45;;;;;;;6.07;5.47;;;19.30;69.00;;;;;;4920841;29;20455;-89
2021/05/08 12:24:15;;;;;;;7.83;6.30;;;19.30;68.90;;;;;;4920702;29;20480;-88
2021/05/08 12:26:51;;;;;;;7.13;5.93;;;19.30;68.50;;;;;;4920676;29;20793;-89
2021/05/08 12:29:20;;;;;;;7.67;5.70;;;19.20;68.30;;;;;;4937031;29;20519;-88
2021/05/08 12:31:48;;;;;;;5.83;5.07;;;19.20;68.60;;;;;;4941595;29;20462;-88
2021/05/08 12:34:20;;;;;;;6.87;5.10;;;19.20;68.30;;;;;;4944612;29;20475;-87
2021/05/08 12:37:04;;;;;;;6.10;5.50;;;19.20;68.30;;;;;;4928452;29;20453;-88
2021/05/08 12:39:31;;;;;;;9.20;5.27;;;19.20;67.90;;;;;;4919783;29;20500;-88
2021/05/08 12:42:01;;;;;;;7.83;5.87;;;19.20;68.20;;;;;;4919561;29;20460;-88
2021/05/08 12:44:33;;;;;;;7.20;6.03;;;19.10;67.70;;;;;;4918219;29;20487;-88
2021/05/08 12:47:04;;;;;;;6.33;5.20;;;19.00;67.50;;;;;;4919356;29;20583;-88
2021/05/08 12:49:36;;;;;;;6.13;5.40;;;19.00;67.40;;;;;;4924278;29;20448;-88
2021/05/08 12:52:26;;;;;;;6.43;5.37;;;18.90;67.10;;;;;;4936708;29;20461;-89
2021/05/08 12:54:54;;;;;;;6.60;5.13;;;18.90;66.60;;;;;;4945473;29;21056;-88
2021/05/08 12:57:26;;;;;;;5.70;4.90;;;18.90;66.90;;;;;;4936623;29;20491;-88
2021/05/08 13:02:48;;;;;;;7.70;5.10;;;19.00;63.80;;;;;;4936411;29;20224;-88
2021/05/08 13:05:21;;;;;;;10.60;9.37;;;19.00;64.40;;;;;;4940549;29;20455;-88
2021/05/08 13:08:00;;;;;;;6.20;5.60;;;19.00;64.90;;;;;;4937057;29;20479;-88
2021/05/08 13:10:31;;;;;;;6.97;5.90;;;18.90;65.00;;;;;;4920626;29;20452;-88
2021/05/08 13:12:59;;;;;;;6.10;5.47;;;18.90;65.00;;;;;;4934971;29;20594;-88
2021/05/08 13:15:35;;;;;;;5.37;4.70;;;18.90;65.10;;;;;;4939369;29;20486;-88